sensor_id;sensor_type;location;lat;lon;timestamp;temperature;humidity
38325;DHT22;24126;52.672;13.622;2023-03-13T00:00:57;10.60;75.50
38325;DHT22;24126;52.672;13.622;2023-03-13T00:03:25;10.60;75.50
38325;DHT22;24126;52.672;13.622;2023-03-13T00:05:56;10.60;75.50
38325;DHT22;24126;52.672;13.622;2023-03-13T00:08:24;10.60;75.50
38325;DHT22;24126;52.672;13.622;2023-03-13T00:10:51;10.60;75.60
38325;DHT22;24126;52.672;13.622;2023-03-13T00:13:18;10.60;75.60
38325;DHT22;24126;52.672;13.622;2023-03-13T00:15:45;10.60;75.60
38325;DHT22;24126;52.672;13.622;2023-03-13T00:18:12;10.60;75.50
38325;DHT22;24126;52.672;13.622;2023-03-13T00:20:39;10.60;75.60
38325;DHT22;24126;52.672;13.622;2023-03-13T00:23:06;10.60;75.60
38325;DHT22;24126;52.672;13.622;2023-03-13T00:25:33;10.60;75.70
38325;DHT22;24126;52.672;13.622;2023-03-13T00:28:00;10.60;75.70
38325;DHT22;24126;52.672;13.622;2023-03-13T00:30:27;10.60;75.80
38325;DHT22;24126;52.672;13.622;2023-03-13T00:32:54;10.60;75.90
38325;DHT22;24126;52.672;13.622;2023-03-13T00:35:21;10.60;75.80
38325;DHT22;24126;52.672;13.622;2023-03-13T00:37:48;10.50;75.80
38325;DHT22;24126;52.672;13.622;2023-03-13T00:40:16;10.50;75.80
38325;DHT22;24126;52.672;13.622;2023-03-13T00:42:45;10.50;75.90
38325;DHT22;24126;52.672;13.622;2023-03-13T00:45:12;10.50;76.10
38325;DHT22;24126;52.672;13.622;2023-03-13T00:47:39;10.50;76.10
38325;DHT22;24126;52.672;13.622;2023-03-13T00:50:08;10.50;76.20
38325;DHT22;24126;52.672;13.622;2023-03-13T00:52:35;10.50;76.30
38325;DHT22;24126;52.672;13.622;2023-03-13T00:55:02;10.50;76.30
38325;DHT22;24126;52.672;13.622;2023-03-13T00:57:29;10.50;76.30
38325;DHT22;24126;52.672;13.622;2023-03-13T00:59:56;10.60;76.30
38325;DHT22;24126;52.672;13.622;2023-03-13T01:02:23;10.60;76.40
38325;DHT22;24126;52.672;13.622;2023-03-13T01:04:51;10.60;76.50
38325;DHT22;24126;52.672;13.622;2023-03-13T01:07:19;10.60;76.50
38325;DHT22;24126;52.672;13.622;2023-03-13T01:09:46;10.60;76.50
38325;DHT22;24126;52.672;13.622;2023-03-13T01:12:13;10.60;76.40
38325;DHT22;24126;52.672;13.622;2023-03-13T01:14:40;10.70;76.60
38325;DHT22;24126;52.672;13.622;2023-03-13T01:17:07;10.70;76.50
38325;DHT22;24126;52.672;13.622;2023-03-13T01:19:34;10.70;76.60
38325;DHT22;24126;52.672;13.622;2023-03-13T01:22:01;10.70;76.60
38325;DHT22;24126;52.672;13.622;2023-03-13T01:24:30;10.70;76.60
38325;DHT22;24126;52.672;13.622;2023-03-13T01:26:57;10.70;76.70
38325;DHT22;24126;52.672;13.622;2023-03-13T01:29:24;10.80;76.70
38325;DHT22;24126;52.672;13.622;2023-03-13T01:31:51;10.80;76.80
38325;DHT22;24126;52.672;13.622;2023-03-13T01:34:18;10.80;76.70
38325;DHT22;24126;52.672;13.622;2023-03-13T01:36:45;10.80;76.70
38325;DHT22;24126;52.672;13.622;2023-03-13T01:39:15;10.80;76.80
38325;DHT22;24126;52.672;13.622;2023-03-13T01:41:42;10.80;76.80
38325;DHT22;24126;52.672;13.622;2023-03-13T01:44:20;10.80;76.70
38325;DHT22;24126;52.672;13.622;2023-03-13T01:46:48;10.90;76.80
38325;DHT22;24126;52.672;13.622;2023-03-13T01:51:58;10.90;76.80
38325;DHT22;24126;52.672;13.622;2023-03-13T01:54:32;10.90;76.80
38325;DHT22;24126;52.672;13.622;2023-03-13T01:57:02;10.90;77.00
38325;DHT22;24126;52.672;13.622;2023-03-13T01:59:36;10.90;77.00
38325;DHT22;24126;52.672;13.622;2023-03-13T02:02:06;10.90;77.00
38325;DHT22;24126;52.672;13.622;2023-03-13T02:04:35;10.90;77.00
38325;DHT22;24126;52.672;13.622;2023-03-13T02:07:05;11.00;77.10
38325;DHT22;24126;52.672;13.622;2023-03-13T02:09:33;10.90;77.00
38325;DHT22;24126;52.672;13.622;2023-03-13T02:12:24;11.00;77.10
38325;DHT22;24126;52.672;13.622;2023-03-13T02:14:48;11.00;77.10
38325;DHT22;24126;52.672;13.622;2023-03-13T02:17:16;11.00;77.20
38325;DHT22;24126;52.672;13.622;2023-03-13T02:19:45;11.00;77.30
38325;DHT22;24126;52.672;13.622;2023-03-13T02:24:43;11.00;77.50
38325;DHT22;24126;52.672;13.622;2023-03-13T02:27:12;11.00;77.60
38325;DHT22;24126;52.672;13.622;2023-03-13T02:29:41;10.90;77.70
38325;DHT22;24126;52.672;13.622;2023-03-13T02:32:08;11.00;77.80
38325;DHT22;24126;52.672;13.622;2023-03-13T02:34:37;10.90;77.90
38325;DHT22;24126;52.672;13.622;2023-03-13T02:37:05;11.00;77.90
38325;DHT22;24126;52.672;13.622;2023-03-13T02:39:36;10.90;77.90
38325;DHT22;24126;52.672;13.622;2023-03-13T02:42:04;11.00;78.00
38325;DHT22;24126;52.672;13.622;2023-03-13T02:44:40;11.00;78.00
38325;DHT22;24126;52.672;13.622;2023-03-13T02:47:09;11.00;77.90
38325;DHT22;24126;52.672;13.622;2023-03-13T02:49:36;11.00;78.00
38325;DHT22;24126;52.672;13.622;2023-03-13T02:52:13;11.00;78.00
38325;DHT22;24126;52.672;13.622;2023-03-13T02:54:44;11.00;78.10
38325;DHT22;24126;52.672;13.622;2023-03-13T02:57:13;11.00;78.80
38325;DHT22;24126;52.672;13.622;2023-03-13T02:59:40;11.00;78.10
38325;DHT22;24126;52.672;13.622;2023-03-13T03:02:07;11.00;78.20
38325;DHT22;24126;52.672;13.622;2023-03-13T03:04:36;11.00;78.30
38325;DHT22;24126;52.672;13.622;2023-03-13T03:07:03;11.00;78.40
38325;DHT22;24126;52.672;13.622;2023-03-13T03:09:30;11.00;78.40
38325;DHT22;24126;52.672;13.622;2023-03-13T03:12:01;11.00;78.50
38325;DHT22;24126;52.672;13.622;2023-03-13T03:14:29;11.00;78.50
38325;DHT22;24126;52.672;13.622;2023-03-13T03:16:57;11.10;78.70
38325;DHT22;24126;52.672;13.622;2023-03-13T03:19:25;11.10;78.60
38325;DHT22;24126;52.672;13.622;2023-03-13T03:21:52;11.10;78.70
38325;DHT22;24126;52.672;13.622;2023-03-13T03:24:19;11.10;78.50
38325;DHT22;24126;52.672;13.622;2023-03-13T03:26:47;11.10;78.50
38325;DHT22;24126;52.672;13.622;2023-03-13T03:29:23;11.20;78.60
38325;DHT22;24126;52.672;13.622;2023-03-13T03:31:53;11.20;78.70
38325;DHT22;24126;52.672;13.622;2023-03-13T03:34:20;11.20;78.70
38325;DHT22;24126;52.672;13.622;2023-03-13T03:36:48;11.20;78.70
38325;DHT22;24126;52.672;13.622;2023-03-13T03:39:14;11.20;78.90
38325;DHT22;24126;52.672;13.622;2023-03-13T03:41:42;11.20;78.90
38325;DHT22;24126;52.672;13.622;2023-03-13T03:44:10;11.20;78.90
38325;DHT22;24126;52.672;13.622;2023-03-13T03:46:49;11.20;79.00
38325;DHT22;24126;52.672;13.622;2023-03-13T03:49:17;11.20;79.00
38325;DHT22;24126;52.672;13.622;2023-03-13T03:51:44;11.20;79.80
38325;DHT22;24126;52.672;13.622;2023-03-13T03:54:12;11.20;79.20
38325;DHT22;24126;52.672;13.622;2023-03-13T03:56:39;11.20;79.20
38325;DHT22;24126;52.672;13.622;2023-03-13T03:59:06;11.20;79.10
38325;DHT22;24126;52.672;13.622;2023-03-13T04:01:42;11.20;79.00
38325;DHT22;24126;52.672;13.622;2023-03-13T04:04:10;11.20;79.10
38325;DHT22;24126;52.672;13.622;2023-03-13T04:06:40;11.20;79.20
38325;DHT22;24126;52.672;13.622;2023-03-13T04:09:08;11.20;79.20
38325;DHT22;24126;52.672;13.622;2023-03-13T04:11:37;11.20;79.30
38325;DHT22;24126;52.672;13.622;2023-03-13T04:14:05;11.20;79.30
38325;DHT22;24126;52.672;13.622;2023-03-13T04:16:32;11.20;79.30
38325;DHT22;24126;52.672;13.622;2023-03-13T04:19:00;11.20;79.40
38325;DHT22;24126;52.672;13.622;2023-03-13T04:21:27;11.30;79.50
38325;DHT22;24126;52.672;13.622;2023-03-13T04:23:59;11.30;79.40
38325;DHT22;24126;52.672;13.622;2023-03-13T04:26:27;11.30;79.30
38325;DHT22;24126;52.672;13.622;2023-03-13T04:28:55;11.30;79.40
38325;DHT22;24126;52.672;13.622;2023-03-13T04:31:38;11.30;79.40
38325;DHT22;24126;52.672;13.622;2023-03-13T04:34:21;11.30;79.50
38325;DHT22;24126;52.672;13.622;2023-03-13T04:36:55;11.30;79.40
38325;DHT22;24126;52.672;13.622;2023-03-13T04:39:42;11.40;79.50
38325;DHT22;24126;52.672;13.622;2023-03-13T04:42:33;11.40;79.50
38325;DHT22;24126;52.672;13.622;2023-03-13T04:45:10;11.40;79.50
38325;DHT22;24126;52.672;13.622;2023-03-13T04:47:47;11.40;79.50
38325;DHT22;24126;52.672;13.622;2023-03-13T04:50:35;11.40;79.60
38325;DHT22;24126;52.672;13.622;2023-03-13T04:53:22;11.40;79.60
38325;DHT22;24126;52.672;13.622;2023-03-13T04:56:05;11.40;79.70
38325;DHT22;24126;52.672;13.622;2023-03-13T04:59:10;11.40;79.70
38325;DHT22;24126;52.672;13.622;2023-03-13T05:01:59;11.40;79.80
38325;DHT22;24126;52.672;13.622;2023-03-13T05:04:52;11.40;79.80
38325;DHT22;24126;52.672;13.622;2023-03-13T05:07:46;11.40;79.70
38325;DHT22;24126;52.672;13.622;2023-03-13T05:10:30;11.50;79.70
38325;DHT22;24126;52.672;13.622;2023-03-13T05:13:23;11.40;79.80
38325;DHT22;24126;52.672;13.622;2023-03-13T05:15:58;11.50;79.90
38325;DHT22;24126;52.672;13.622;2023-03-13T05:18:44;11.50;79.90
38325;DHT22;24126;52.672;13.622;2023-03-13T05:21:49;11.50;80.00
38325;DHT22;24126;52.672;13.622;2023-03-13T05:24:33;11.50;80.10
38325;DHT22;24126;52.672;13.622;2023-03-13T05:27:12;11.50;80.00
38325;DHT22;24126;52.672;13.622;2023-03-13T05:29:51;11.50;80.10
38325;DHT22;24126;52.672;13.622;2023-03-13T05:32:41;11.50;80.20
38325;DHT22;24126;52.672;13.622;2023-03-13T05:35:22;11.50;80.30
38325;DHT22;24126;52.672;13.622;2023-03-13T05:38:01;11.50;80.20
38325;DHT22;24126;52.672;13.622;2023-03-13T05:40:41;11.50;80.30
38325;DHT22;24126;52.672;13.622;2023-03-13T05:43:27;11.50;80.30
38325;DHT22;24126;52.672;13.622;2023-03-13T05:46:17;11.50;80.30
38325;DHT22;24126;52.672;13.622;2023-03-13T05:49:11;11.50;80.20
38325;DHT22;24126;52.672;13.622;2023-03-13T05:51:59;11.50;80.10
38325;DHT22;24126;52.672;13.622;2023-03-13T05:54:45;11.60;80.20
38325;DHT22;24126;52.672;13.622;2023-03-13T05:57:32;11.60;80.30
38325;DHT22;24126;52.672;13.622;2023-03-13T06:00:04;11.60;80.30
38325;DHT22;24126;52.672;13.622;2023-03-13T06:03:10;11.60;80.30
38325;DHT22;24126;52.672;13.622;2023-03-13T06:05:40;11.60;80.50
38325;DHT22;24126;52.672;13.622;2023-03-13T06:08:20;11.60;80.50
38325;DHT22;24126;52.672;13.622;2023-03-13T06:10:47;11.70;80.60
38325;DHT22;24126;52.672;13.622;2023-03-13T06:13:14;11.70;80.60
38325;DHT22;24126;52.672;13.622;2023-03-13T06:15:41;11.70;80.70
38325;DHT22;24126;52.672;13.622;2023-03-13T06:18:33;11.70;80.80
38325;DHT22;24126;52.672;13.622;2023-03-13T06:21:00;11.70;80.80
38325;DHT22;24126;52.672;13.622;2023-03-13T06:23:27;11.70;81.00
38325;DHT22;24126;52.672;13.622;2023-03-13T06:25:54;11.70;80.90
38325;DHT22;24126;52.672;13.622;2023-03-13T06:28:22;11.70;80.80
38325;DHT22;24126;52.672;13.622;2023-03-13T06:30:49;11.80;80.90
38325;DHT22;24126;52.672;13.622;2023-03-13T06:33:16;11.80;80.90
38325;DHT22;24126;52.672;13.622;2023-03-13T06:35:43;11.80;80.90
38325;DHT22;24126;52.672;13.622;2023-03-13T06:38:10;11.80;80.90
38325;DHT22;24126;52.672;13.622;2023-03-13T06:40:38;11.80;80.90
38325;DHT22;24126;52.672;13.622;2023-03-13T06:43:05;11.80;81.10
38325;DHT22;24126;52.672;13.622;2023-03-13T06:45:33;11.80;81.20
38325;DHT22;24126;52.672;13.622;2023-03-13T06:48:01;11.80;81.30
38325;DHT22;24126;52.672;13.622;2023-03-13T06:50:28;11.80;81.40
38325;DHT22;24126;52.672;13.622;2023-03-13T06:52:55;11.80;81.40
38325;DHT22;24126;52.672;13.622;2023-03-13T06:55:23;11.80;81.40
38325;DHT22;24126;52.672;13.622;2023-03-13T06:57:51;11.80;81.50
38325;DHT22;24126;52.672;13.622;2023-03-13T07:00:18;11.80;81.60
38325;DHT22;24126;52.672;13.622;2023-03-13T07:02:45;11.80;81.80
38325;DHT22;24126;52.672;13.622;2023-03-13T07:05:12;11.80;81.90
38325;DHT22;24126;52.672;13.622;2023-03-13T07:07:40;11.80;82.10
38325;DHT22;24126;52.672;13.622;2023-03-13T07:10:08;11.80;82.10
38325;DHT22;24126;52.672;13.622;2023-03-13T07:12:35;11.90;82.20
38325;DHT22;24126;52.672;13.622;2023-03-13T07:15:03;11.80;82.20
38325;DHT22;24126;52.672;13.622;2023-03-13T07:17:30;11.80;82.40
38325;DHT22;24126;52.672;13.622;2023-03-13T07:19:57;11.90;82.40
38325;DHT22;24126;52.672;13.622;2023-03-13T07:22:25;11.90;82.50
38325;DHT22;24126;52.672;13.622;2023-03-13T07:24:51;11.90;82.60
38325;DHT22;24126;52.672;13.622;2023-03-13T07:27:18;11.90;82.60
38325;DHT22;24126;52.672;13.622;2023-03-13T07:29:47;11.90;82.40
38325;DHT22;24126;52.672;13.622;2023-03-13T07:32:14;12.00;82.60
38325;DHT22;24126;52.672;13.622;2023-03-13T07:34:41;12.00;82.60
38325;DHT22;24126;52.672;13.622;2023-03-13T07:37:13;12.00;82.40
38325;DHT22;24126;52.672;13.622;2023-03-13T07:39:41;12.00;82.30
38325;DHT22;24126;52.672;13.622;2023-03-13T07:42:09;12.10;82.30
38325;DHT22;24126;52.672;13.622;2023-03-13T07:44:36;12.00;82.20
38325;DHT22;24126;52.672;13.622;2023-03-13T07:47:03;12.10;82.20
38325;DHT22;24126;52.672;13.622;2023-03-13T07:49:30;12.10;83.10
38325;DHT22;24126;52.672;13.622;2023-03-13T07:51:58;12.10;82.40
38325;DHT22;24126;52.672;13.622;2023-03-13T07:54:25;12.20;82.50
38325;DHT22;24126;52.672;13.622;2023-03-13T07:56:52;12.20;82.50
38325;DHT22;24126;52.672;13.622;2023-03-13T07:59:19;12.20;82.60
38325;DHT22;24126;52.672;13.622;2023-03-13T08:01:46;12.20;82.40
38325;DHT22;24126;52.672;13.622;2023-03-13T08:04:13;12.30;82.60
38325;DHT22;24126;52.672;13.622;2023-03-13T08:06:40;12.30;82.80
38325;DHT22;24126;52.672;13.622;2023-03-13T08:09:07;12.30;82.70
38325;DHT22;24126;52.672;13.622;2023-03-13T08:11:34;12.30;82.90
38325;DHT22;24126;52.672;13.622;2023-03-13T08:14:02;12.40;82.90
38325;DHT22;24126;52.672;13.622;2023-03-13T08:16:30;12.40;82.90
38325;DHT22;24126;52.672;13.622;2023-03-13T08:18:59;12.40;82.80
38325;DHT22;24126;52.672;13.622;2023-03-13T08:21:27;12.40;82.70
38325;DHT22;24126;52.672;13.622;2023-03-13T08:23:55;12.40;82.80
38325;DHT22;24126;52.672;13.622;2023-03-13T08:26:23;12.40;83.00
38325;DHT22;24126;52.672;13.622;2023-03-13T08:28:52;12.40;82.90
38325;DHT22;24126;52.672;13.622;2023-03-13T08:31:23;12.50;83.00
38325;DHT22;24126;52.672;13.622;2023-03-13T08:33:51;12.60;83.10
38325;DHT22;24126;52.672;13.622;2023-03-13T08:36:19;12.60;83.10
38325;DHT22;24126;52.672;13.622;2023-03-13T08:38:48;12.60;83.20
38325;DHT22;24126;52.672;13.622;2023-03-13T08:41:16;12.60;83.30
38325;DHT22;24126;52.672;13.622;2023-03-13T08:43:43;12.70;83.30
38325;DHT22;24126;52.672;13.622;2023-03-13T08:46:10;12.70;83.20
38325;DHT22;24126;52.672;13.622;2023-03-13T08:48:38;12.70;83.30
38325;DHT22;24126;52.672;13.622;2023-03-13T08:51:06;12.80;83.30
38325;DHT22;24126;52.672;13.622;2023-03-13T08:53:34;12.80;83.20
38325;DHT22;24126;52.672;13.622;2023-03-13T08:56:02;12.80;83.30
38325;DHT22;24126;52.672;13.622;2023-03-13T08:58:29;12.80;83.40
38325;DHT22;24126;52.672;13.622;2023-03-13T09:01:01;12.80;83.60
38325;DHT22;24126;52.672;13.622;2023-03-13T09:03:29;12.80;84.20
38325;DHT22;24126;52.672;13.622;2023-03-13T09:05:56;12.80;83.70
38325;DHT22;24126;52.672;13.622;2023-03-13T09:08:24;12.80;83.70
38325;DHT22;24126;52.672;13.622;2023-03-13T09:10:58;12.80;83.70
38325;DHT22;24126;52.672;13.622;2023-03-13T09:13:26;12.80;83.70
38325;DHT22;24126;52.672;13.622;2023-03-13T09:15:56;12.80;83.90
38325;DHT22;24126;52.672;13.622;2023-03-13T09:18:24;12.80;83.80
38325;DHT22;24126;52.672;13.622;2023-03-13T09:20:51;12.90;84.70
38325;DHT22;24126;52.672;13.622;2023-03-13T09:23:19;12.90;83.90
38325;DHT22;24126;52.672;13.622;2023-03-13T09:25:47;12.90;84.00
38325;DHT22;24126;52.672;13.622;2023-03-13T09:28:14;13.00;84.00
38325;DHT22;24126;52.672;13.622;2023-03-13T09:30:41;13.00;83.90
38325;DHT22;24126;52.672;13.622;2023-03-13T09:33:08;13.00;83.90
38325;DHT22;24126;52.672;13.622;2023-03-13T09:35:37;13.10;83.90
38325;DHT22;24126;52.672;13.622;2023-03-13T09:38:04;13.10;84.00
38325;DHT22;24126;52.672;13.622;2023-03-13T09:40:40;13.10;84.00
38325;DHT22;24126;52.672;13.622;2023-03-13T09:43:12;13.10;84.10
38325;DHT22;24126;52.672;13.622;2023-03-13T09:45:42;13.10;84.10
38325;DHT22;24126;52.672;13.622;2023-03-13T09:48:58;13.20;84.00
38325;DHT22;24126;52.672;13.622;2023-03-13T09:51:23;13.20;83.90
38325;DHT22;24126;52.672;13.622;2023-03-13T09:53:54;13.20;83.90
38325;DHT22;24126;52.672;13.622;2023-03-13T09:56:24;13.20;84.10
38325;DHT22;24126;52.672;13.622;2023-03-13T09:58:56;13.20;84.20
38325;DHT22;24126;52.672;13.622;2023-03-13T10:01:26;13.30;84.10
38325;DHT22;24126;52.672;13.622;2023-03-13T10:03:57;13.30;84.10
38325;DHT22;24126;52.672;13.622;2023-03-13T10:06:26;13.40;84.20
38325;DHT22;24126;52.672;13.622;2023-03-13T10:08:55;13.40;84.10
38325;DHT22;24126;52.672;13.622;2023-03-13T10:11:27;13.40;84.10
38325;DHT22;24126;52.672;13.622;2023-03-13T10:13:58;13.40;84.00
38325;DHT22;24126;52.672;13.622;2023-03-13T10:16:28;13.40;84.10
38325;DHT22;24126;52.672;13.622;2023-03-13T10:19:00;13.40;84.20
38325;DHT22;24126;52.672;13.622;2023-03-13T10:21:35;13.50;84.30
38325;DHT22;24126;52.672;13.622;2023-03-13T10:24:04;13.50;84.40
38325;DHT22;24126;52.672;13.622;2023-03-13T10:26:34;13.50;84.60
38325;DHT22;24126;52.672;13.622;2023-03-13T10:29:21;13.50;84.70
38325;DHT22;24126;52.672;13.622;2023-03-13T10:31:52;13.60;84.60
38325;DHT22;24126;52.672;13.622;2023-03-13T10:34:20;13.60;84.70
38325;DHT22;24126;52.672;13.622;2023-03-13T10:36:48;13.60;84.60
38325;DHT22;24126;52.672;13.622;2023-03-13T10:39:20;13.70;84.60
38325;DHT22;24126;52.672;13.622;2023-03-13T10:41:49;13.80;84.80
38325;DHT22;24126;52.672;13.622;2023-03-13T10:44:17;13.90;84.90
38325;DHT22;24126;52.672;13.622;2023-03-13T10:46:46;14.00;84.60
38325;DHT22;24126;52.672;13.622;2023-03-13T10:49:20;14.00;84.60
38325;DHT22;24126;52.672;13.622;2023-03-13T10:51:52;14.10;84.30
38325;DHT22;24126;52.672;13.622;2023-03-13T10:54:27;14.20;84.40
38325;DHT22;24126;52.672;13.622;2023-03-13T10:57:16;14.40;84.80
38325;DHT22;24126;52.672;13.622;2023-03-13T10:59:47;14.50;84.70
38325;DHT22;24126;52.672;13.622;2023-03-13T11:02:34;14.70;84.50
38325;DHT22;24126;52.672;13.622;2023-03-13T11:07:49;14.90;83.80
38325;DHT22;24126;52.672;13.622;2023-03-13T11:10:18;14.90;84.30
38325;DHT22;24126;52.672;13.622;2023-03-13T11:12:46;15.00;83.70
38325;DHT22;24126;52.672;13.622;2023-03-13T11:15:14;15.10;83.70
38325;DHT22;24126;52.672;13.622;2023-03-13T11:17:42;15.20;83.80
38325;DHT22;24126;52.672;13.622;2023-03-13T11:22:47;15.60;83.70
38325;DHT22;24126;52.672;13.622;2023-03-13T11:25:30;15.90;83.30
38325;DHT22;24126;52.672;13.622;2023-03-13T11:31:02;16.30;82.20
38325;DHT22;24126;52.672;13.622;2023-03-13T11:38:53;16.40;81.40
38325;DHT22;24126;52.672;13.622;2023-03-13T11:41:24;16.40;81.30
38325;DHT22;24126;52.672;13.622;2023-03-13T11:46:42;16.40;81.00
38325;DHT22;24126;52.672;13.622;2023-03-13T11:52:36;16.30;81.10
38325;DHT22;24126;52.672;13.622;2023-03-13T11:55:23;16.30;80.90
38325;DHT22;24126;52.672;13.622;2023-03-13T11:58:01;16.30;81.00
38325;DHT22;24126;52.672;13.622;2023-03-13T12:00:39;16.40;81.20
38325;DHT22;24126;52.672;13.622;2023-03-13T12:03:13;16.40;81.00
38325;DHT22;24126;52.672;13.622;2023-03-13T12:05:50;16.40;80.90
38325;DHT22;24126;52.672;13.622;2023-03-13T12:08:24;16.40;80.90
38325;DHT22;24126;52.672;13.622;2023-03-13T12:11:12;16.40;80.80
38325;DHT22;24126;52.672;13.622;2023-03-13T12:13:46;16.50;81.10
38325;DHT22;24126;52.672;13.622;2023-03-13T12:16:18;16.50;81.10
38325;DHT22;24126;52.672;13.622;2023-03-13T12:18:46;16.60;80.80
38325;DHT22;24126;52.672;13.622;2023-03-13T12:21:29;16.60;81.00
38325;DHT22;24126;52.672;13.622;2023-03-13T12:24:03;16.70;81.10
38325;DHT22;24126;52.672;13.622;2023-03-13T12:26:41;16.90;81.20
38325;DHT22;24126;52.672;13.622;2023-03-13T12:29:14;17.00;80.90
38325;DHT22;24126;52.672;13.622;2023-03-13T12:31:46;17.10;80.50
38325;DHT22;24126;52.672;13.622;2023-03-13T12:34:19;17.20;80.20
38325;DHT22;24126;52.672;13.622;2023-03-13T12:42:19;17.20;79.50
38325;DHT22;24126;52.672;13.622;2023-03-13T12:44:49;17.20;79.50
38325;DHT22;24126;52.672;13.622;2023-03-13T12:47:17;17.20;79.50
38325;DHT22;24126;52.672;13.622;2023-03-13T12:52:23;17.20;79.60
38325;DHT22;24126;52.672;13.622;2023-03-13T12:57:40;17.20;80.20
38325;DHT22;24126;52.672;13.622;2023-03-13T13:00:15;17.30;79.60
38325;DHT22;24126;52.672;13.622;2023-03-13T13:02:44;17.50;80.20
38325;DHT22;24126;52.672;13.622;2023-03-13T13:05:18;17.60;80.00
38325;DHT22;24126;52.672;13.622;2023-03-13T13:07:54;17.80;79.80
38325;DHT22;24126;52.672;13.622;2023-03-13T13:10:22;18.10;79.50
38325;DHT22;24126;52.672;13.622;2023-03-13T13:15:36;18.40;78.50
38325;DHT22;24126;52.672;13.622;2023-03-13T13:18:14;18.50;78.40
38325;DHT22;24126;52.672;13.622;2023-03-13T13:20:47;18.70;78.40
38325;DHT22;24126;52.672;13.622;2023-03-13T13:23:19;18.80;77.70
38325;DHT22;24126;52.672;13.622;2023-03-13T13:25:46;18.90;77.10
38325;DHT22;24126;52.672;13.622;2023-03-13T13:30:43;18.90;76.60
38325;DHT22;24126;52.672;13.622;2023-03-13T13:38:36;18.90;76.30
38325;DHT22;24126;52.672;13.622;2023-03-13T13:48:37;18.90;76.20
38325;DHT22;24126;52.672;13.622;2023-03-13T13:53:45;18.90;76.00
38325;DHT22;24126;52.672;13.622;2023-03-13T13:58:59;18.90;75.50
38325;DHT22;24126;52.672;13.622;2023-03-13T14:01:27;18.90;75.40
38325;DHT22;24126;52.672;13.622;2023-03-13T14:03:58;18.90;75.30
38325;DHT22;24126;52.672;13.622;2023-03-13T14:06:29;19.00;75.10
38325;DHT22;24126;52.672;13.622;2023-03-13T14:09:01;19.00;75.10
38325;DHT22;24126;52.672;13.622;2023-03-13T14:11:37;19.00;75.30
38325;DHT22;24126;52.672;13.622;2023-03-13T14:14:18;19.10;75.30
38325;DHT22;24126;52.672;13.622;2023-03-13T14:16:46;19.10;75.00
38325;DHT22;24126;52.672;13.622;2023-03-13T14:21:48;19.20;74.60
38325;DHT22;24126;52.672;13.622;2023-03-13T14:24:15;19.10;74.60
38325;DHT22;24126;52.672;13.622;2023-03-13T14:26:42;19.20;74.50
38325;DHT22;24126;52.672;13.622;2023-03-13T14:29:17;19.20;74.20
38325;DHT22;24126;52.672;13.622;2023-03-13T14:31:54;19.20;74.20
38325;DHT22;24126;52.672;13.622;2023-03-13T14:34:21;19.30;74.20
38325;DHT22;24126;52.672;13.622;2023-03-13T14:36:49;19.40;74.00
38325;DHT22;24126;52.672;13.622;2023-03-13T14:44:29;19.40;73.20
38325;DHT22;24126;52.672;13.622;2023-03-13T14:46:58;19.40;73.30
38325;DHT22;24126;52.672;13.622;2023-03-13T14:49:26;19.40;73.60
38325;DHT22;24126;52.672;13.622;2023-03-13T14:52:43;19.40;73.50
38325;DHT22;24126;52.672;13.622;2023-03-13T14:57:20;19.40;73.30
38325;DHT22;24126;52.672;13.622;2023-03-13T14:59:48;19.40;73.40
38325;DHT22;24126;52.672;13.622;2023-03-13T15:02:20;19.40;73.40
38325;DHT22;24126;52.672;13.622;2023-03-13T15:04:50;19.40;73.20
38325;DHT22;24126;52.672;13.622;2023-03-13T15:07:17;19.40;73.20
38325;DHT22;24126;52.672;13.622;2023-03-13T15:09:45;19.40;73.20
38325;DHT22;24126;52.672;13.622;2023-03-13T15:12:13;19.40;73.00
38325;DHT22;24126;52.672;13.622;2023-03-13T15:14:42;19.40;73.10
38325;DHT22;24126;52.672;13.622;2023-03-13T15:17:14;19.30;73.20
38325;DHT22;24126;52.672;13.622;2023-03-13T15:19:42;19.30;73.10
38325;DHT22;24126;52.672;13.622;2023-03-13T15:22:10;19.30;73.10
38325;DHT22;24126;52.672;13.622;2023-03-13T15:24:38;19.20;73.00
38325;DHT22;24126;52.672;13.622;2023-03-13T15:27:15;19.20;73.00
38325;DHT22;24126;52.672;13.622;2023-03-13T15:29:42;19.10;73.30
38325;DHT22;24126;52.672;13.622;2023-03-13T15:32:11;19.10;73.50
38325;DHT22;24126;52.672;13.622;2023-03-13T15:34:40;19.10;73.70
38325;DHT22;24126;52.672;13.622;2023-03-13T15:37:10;19.00;73.30
38325;DHT22;24126;52.672;13.622;2023-03-13T15:39:37;19.00;73.40
38325;DHT22;24126;52.672;13.622;2023-03-13T15:42:04;18.90;73.70
38325;DHT22;24126;52.672;13.622;2023-03-13T15:44:31;18.90;73.70
38325;DHT22;24126;52.672;13.622;2023-03-13T15:46:58;18.80;73.60
38325;DHT22;24126;52.672;13.622;2023-03-13T15:49:26;18.80;73.50
38325;DHT22;24126;52.672;13.622;2023-03-13T15:51:53;18.80;73.60
38325;DHT22;24126;52.672;13.622;2023-03-13T15:54:20;18.70;74.40
38325;DHT22;24126;52.672;13.622;2023-03-13T15:56:47;18.70;73.60
38325;DHT22;24126;52.672;13.622;2023-03-13T15:59:14;18.70;73.50
38325;DHT22;24126;52.672;13.622;2023-03-13T16:01:42;18.60;73.50
38325;DHT22;24126;52.672;13.622;2023-03-13T16:04:10;18.60;73.40
38325;DHT22;24126;52.672;13.622;2023-03-13T16:06:37;18.50;73.50
38325;DHT22;24126;52.672;13.622;2023-03-13T16:09:04;18.50;73.70
38325;DHT22;24126;52.672;13.622;2023-03-13T16:11:32;18.50;73.60
38325;DHT22;24126;52.672;13.622;2023-03-13T16:13:59;18.40;73.70
38325;DHT22;24126;52.672;13.622;2023-03-13T16:16:27;18.40;73.70
38325;DHT22;24126;52.672;13.622;2023-03-13T16:18:56;18.40;73.90
38325;DHT22;24126;52.672;13.622;2023-03-13T16:21:24;18.30;73.80
38325;DHT22;24126;52.672;13.622;2023-03-13T16:23:52;18.30;74.50
38325;DHT22;24126;52.672;13.622;2023-03-13T16:26:21;18.30;73.80
38325;DHT22;24126;52.672;13.622;2023-03-13T16:28:48;18.30;74.00
38325;DHT22;24126;52.672;13.622;2023-03-13T16:31:16;18.30;73.90
38325;DHT22;24126;52.672;13.622;2023-03-13T16:33:44;18.30;74.00
38325;DHT22;24126;52.672;13.622;2023-03-13T16:36:13;18.30;74.10
38325;DHT22;24126;52.672;13.622;2023-03-13T16:38:40;18.20;74.00
38325;DHT22;24126;52.672;13.622;2023-03-13T16:41:08;18.20;74.10
38325;DHT22;24126;52.672;13.622;2023-03-13T16:43:35;18.20;74.20
38325;DHT22;24126;52.672;13.622;2023-03-13T16:46:02;18.20;74.20
38325;DHT22;24126;52.672;13.622;2023-03-13T16:48:31;18.10;75.00